sensor_id;sensor_type;location;lat;lon;timestamp;P1;durP1;ratioP1;P2;durP2;ratioP2
36213;SDS011;37652;50.400;30.628;2022-11-20T00:00:45;22.45;;;14.55;;
36213;SDS011;37652;50.400;30.628;2022-11-20T00:02:45;22.40;;;14.63;;
36213;SDS011;37652;50.400;30.628;2022-11-20T00:04:46;19.42;;;14.50;;
36213;SDS011;37652;50.400;30.628;2022-11-20T00:06:47;21.35;;;15.43;;
36213;SDS011;37652;50.400;30.628;2022-11-20T00:08:47;25.95;;;17.88;;
36213;SDS011;37652;50.400;30.628;2022-11-20T00:10:48;26.65;;;19.10;;
36213;SDS011;37652;50.400;30.628;2022-11-20T00:12:49;23.75;;;16.42;;
36213;SDS011;37652;50.400;30.628;2022-11-20T00:14:50;28.55;;;19.83;;
36213;SDS011;37652;50.400;30.628;2022-11-20T00:16:50;29.85;;;20.48;;
36213;SDS011;37652;50.400;30.628;2022-11-20T00:18:51;29.27;;;20.92;;
36213;SDS011;37652;50.400;30.628;2022-11-20T00:20:52;27.95;;;20.27;;
36213;SDS011;37652;50.400;30.628;2022-11-20T00:22:53;33.67;;;24.15;;
36213;SDS011;37652;50.400;30.628;2022-11-20T00:24:54;31.23;;;21.30;;
36213;SDS011;37652;50.400;30.628;2022-11-20T00:26:57;28.40;;;20.67;;
36213;SDS011;37652;50.400;30.628;2022-11-20T00:28:58;28.50;;;20.02;;
36213;SDS011;37652;50.400;30.628;2022-11-20T00:31:07;28.83;;;19.27;;
36213;SDS011;37652;50.400;30.628;2022-11-20T00:33:09;28.63;;;19.97;;
36213;SDS011;37652;50.400;30.628;2022-11-20T00:35:10;35.50;;;22.08;;
36213;SDS011;37652;50.400;30.628;2022-11-20T00:37:10;30.05;;;19.65;;
36213;SDS011;37652;50.400;30.628;2022-11-20T00:39:11;30.33;;;21.13;;
36213;SDS011;37652;50.400;30.628;2022-11-20T00:41:13;33.42;;;22.00;;
36213;SDS011;37652;50.400;30.628;2022-11-20T00:43:15;31.30;;;22.50;;
36213;SDS011;37652;50.400;30.628;2022-11-20T00:45:16;36.53;;;23.00;;
36213;SDS011;37652;50.400;30.628;2022-11-20T00:47:17;36.10;;;21.92;;
36213;SDS011;37652;50.400;30.628;2022-11-20T00:49:19;42.17;;;27.33;;
36213;SDS011;37652;50.400;30.628;2022-11-20T00:51:21;42.20;;;29.30;;
36213;SDS011;37652;50.400;30.628;2022-11-20T00:53:24;45.83;;;30.10;;
36213;SDS011;37652;50.400;30.628;2022-11-20T00:55:25;45.93;;;30.90;;
36213;SDS011;37652;50.400;30.628;2022-11-20T00:57:26;43.65;;;29.83;;
36213;SDS011;37652;50.400;30.628;2022-11-20T00:59:27;49.00;;;31.05;;
36213;SDS011;37652;50.400;30.628;2022-11-20T01:01:27;41.15;;;29.17;;
36213;SDS011;37652;50.400;30.628;2022-11-20T01:03:30;43.03;;;30.80;;
36213;SDS011;37652;50.400;30.628;2022-11-20T01:05:33;43.03;;;30.70;;
36213;SDS011;37652;50.400;30.628;2022-11-20T01:07:35;40.50;;;31.60;;
36213;SDS011;37652;50.400;30.628;2022-11-20T01:09:36;44.33;;;28.80;;
36213;SDS011;37652;50.400;30.628;2022-11-20T01:11:38;37.05;;;25.90;;
36213;SDS011;37652;50.400;30.628;2022-11-20T01:13:41;41.77;;;28.63;;
36213;SDS011;37652;50.400;30.628;2022-11-20T01:15:43;44.60;;;30.53;;
36213;SDS011;37652;50.400;30.628;2022-11-20T01:17:43;42.83;;;30.20;;
36213;SDS011;37652;50.400;30.628;2022-11-20T01:19:44;30.38;;;21.45;;
36213;SDS011;37652;50.400;30.628;2022-11-20T01:21:50;29.63;;;23.33;;
36213;SDS011;37652;50.400;30.628;2022-11-20T01:23:53;25.93;;;20.13;;
36213;SDS011;37652;50.400;30.628;2022-11-20T01:27:55;23.73;;;18.67;;
36213;SDS011;37652;50.400;30.628;2022-11-20T01:29:56;34.15;;;25.52;;
36213;SDS011;37652;50.400;30.628;2022-11-20T01:31:56;34.35;;;25.35;;
36213;SDS011;37652;50.400;30.628;2022-11-20T01:33:58;26.05;;;20.25;;
36213;SDS011;37652;50.400;30.628;2022-11-20T01:36:04;24.57;;;18.57;;
36213;SDS011;37652;50.400;30.628;2022-11-20T01:38:06;27.27;;;21.10;;
36213;SDS011;37652;50.400;30.628;2022-11-20T01:40:06;31.90;;;23.65;;
36213;SDS011;37652;50.400;30.628;2022-11-20T01:42:07;33.58;;;25.77;;
36213;SDS011;37652;50.400;30.628;2022-11-20T01:47:01;32.37;;;23.37;;
36213;SDS011;37652;50.400;30.628;2022-11-20T01:49:50;32.23;;;23.63;;
36213;SDS011;37652;50.400;30.628;2022-11-20T01:51:29;35.13;;;24.90;;
36213;SDS011;37652;50.400;30.628;2022-11-20T01:53:38;35.33;;;26.23;;
36213;SDS011;37652;50.400;30.628;2022-11-20T01:55:40;37.67;;;28.65;;
36213;SDS011;37652;50.400;30.628;2022-11-20T01:57:46;38.43;;;27.37;;
36213;SDS011;37652;50.400;30.628;2022-11-20T01:59:50;41.97;;;30.00;;
36213;SDS011;37652;50.400;30.628;2022-11-20T02:01:57;38.77;;;28.50;;
36213;SDS011;37652;50.400;30.628;2022-11-20T02:03:58;35.63;;;27.73;;
36213;SDS011;37652;50.400;30.628;2022-11-20T02:06:08;40.50;;;28.03;;
36213;SDS011;37652;50.400;30.628;2022-11-20T02:08:16;33.40;;;25.43;;
36213;SDS011;37652;50.400;30.628;2022-11-20T02:10:19;27.77;;;21.53;;
36213;SDS011;37652;50.400;30.628;2022-11-20T02:12:20;26.80;;;21.60;;
36213;SDS011;37652;50.400;30.628;2022-11-20T02:14:39;30.27;;;21.63;;
36213;SDS011;37652;50.400;30.628;2022-11-20T02:16:43;37.20;;;25.00;;
36213;SDS011;37652;50.400;30.628;2022-11-20T02:18:46;36.53;;;26.83;;
36213;SDS011;37652;50.400;30.628;2022-11-20T02:20:48;35.78;;;25.58;;
36213;SDS011;37652;50.400;30.628;2022-11-20T02:23:01;38.37;;;26.07;;
36213;SDS011;37652;50.400;30.628;2022-11-20T02:25:09;37.10;;;25.27;;
36213;SDS011;37652;50.400;30.628;2022-11-20T02:27:14;27.97;;;21.73;;
36213;SDS011;37652;50.400;30.628;2022-11-20T02:29:17;30.83;;;21.20;;
36213;SDS011;37652;50.400;30.628;2022-11-20T02:31:23;41.20;;;25.90;;
36213;SDS011;37652;50.400;30.628;2022-11-20T02:33:24;29.63;;;20.00;;
36213;SDS011;37652;50.400;30.628;2022-11-20T02:37:27;25.63;;;19.08;;
36213;SDS011;37652;50.400;30.628;2022-11-20T02:39:32;25.57;;;19.50;;
36213;SDS011;37652;50.400;30.628;2022-11-20T02:41:34;16.73;;;14.27;;
36213;SDS011;37652;50.400;30.628;2022-11-20T02:43:36;19.67;;;15.10;;
36213;SDS011;37652;50.400;30.628;2022-11-20T02:45:37;24.10;;;16.75;;
36213;SDS011;37652;50.400;30.628;2022-11-20T02:47:37;22.90;;;16.83;;
36213;SDS011;37652;50.400;30.628;2022-11-20T02:49:38;29.10;;;21.45;;
36213;SDS011;37652;50.400;30.628;2022-11-20T02:51:39;26.55;;;19.33;;
36213;SDS011;37652;50.400;30.628;2022-11-20T02:53:39;25.55;;;18.98;;
36213;SDS011;37652;50.400;30.628;2022-11-20T02:55:40;23.05;;;15.98;;
36213;SDS011;37652;50.400;30.628;2022-11-20T02:57:41;19.67;;;14.98;;
36213;SDS011;37652;50.400;30.628;2022-11-20T02:59:41;24.58;;;16.98;;
36213;SDS011;37652;50.400;30.628;2022-11-20T03:01:42;19.00;;;13.38;;
36213;SDS011;37652;50.400;30.628;2022-11-20T03:03:43;30.05;;;19.95;;
36213;SDS011;37652;50.400;30.628;2022-11-20T03:05:43;38.95;;;25.95;;
36213;SDS011;37652;50.400;30.628;2022-11-20T03:07:44;45.92;;;29.95;;
36213;SDS011;37652;50.400;30.628;2022-11-20T03:09:45;36.40;;;24.92;;
36213;SDS011;37652;50.400;30.628;2022-11-20T03:11:45;40.65;;;25.92;;
36213;SDS011;37652;50.400;30.628;2022-11-20T03:13:46;45.28;;;27.25;;
36213;SDS011;37652;50.400;30.628;2022-11-20T03:15:47;35.08;;;22.30;;
36213;SDS011;37652;50.400;30.628;2022-11-20T03:17:47;37.58;;;20.35;;
36213;SDS011;37652;50.400;30.628;2022-11-20T03:19:48;42.80;;;25.35;;
36213;SDS011;37652;50.400;30.628;2022-11-20T03:21:49;53.97;;;32.65;;
36213;SDS011;37652;50.400;30.628;2022-11-20T03:23:49;44.75;;;30.58;;
36213;SDS011;37652;50.400;30.628;2022-11-20T03:25:50;47.97;;;30.15;;
36213;SDS011;37652;50.400;30.628;2022-11-20T03:27:51;43.63;;;30.88;;
36213;SDS011;37652;50.400;30.628;2022-11-20T03:29:52;45.42;;;29.30;;
36213;SDS011;37652;50.400;30.628;2022-11-20T03:31:52;46.92;;;30.67;;
36213;SDS011;37652;50.400;30.628;2022-11-20T03:33:53;47.72;;;29.15;;
36213;SDS011;37652;50.400;30.628;2022-11-20T03:35:54;41.63;;;25.27;;
36213;SDS011;37652;50.400;30.628;2022-11-20T03:37:55;49.53;;;26.65;;
36213;SDS011;37652;50.400;30.628;2022-11-20T03:39:55;38.15;;;22.63;;
36213;SDS011;37652;50.400;30.628;2022-11-20T03:41:56;38.13;;;25.02;;
36213;SDS011;37652;50.400;30.628;2022-11-20T03:43:57;40.80;;;25.58;;
36213;SDS011;37652;50.400;30.628;2022-11-20T03:46:00;38.93;;;25.07;;
36213;SDS011;37652;50.400;30.628;2022-11-20T03:48:01;38.42;;;25.77;;
36213;SDS011;37652;50.400;30.628;2022-11-20T03:50:02;51.45;;;32.75;;
36213;SDS011;37652;50.400;30.628;2022-11-20T03:52:03;55.13;;;36.53;;
36213;SDS011;37652;50.400;30.628;2022-11-20T03:54:05;47.53;;;31.50;;
36213;SDS011;37652;50.400;30.628;2022-11-20T03:56:08;44.03;;;28.97;;
36213;SDS011;37652;50.400;30.628;2022-11-20T03:58:09;37.73;;;28.00;;
36213;SDS011;37652;50.400;30.628;2022-11-20T04:00:10;38.40;;;27.40;;
36213;SDS011;37652;50.400;30.628;2022-11-20T04:04:13;33.22;;;25.45;;
36213;SDS011;37652;50.400;30.628;2022-11-20T04:06:15;36.53;;;26.52;;
36213;SDS011;37652;50.400;30.628;2022-11-20T04:08:20;34.93;;;25.47;;
36213;SDS011;37652;50.400;30.628;2022-11-20T04:10:20;37.50;;;26.40;;
36213;SDS011;37652;50.400;30.628;2022-11-20T04:12:21;35.42;;;26.48;;
36213;SDS011;37652;50.400;30.628;2022-11-20T04:14:22;30.45;;;20.40;;
36213;SDS011;37652;50.400;30.628;2022-11-20T04:16:23;38.38;;;27.80;;
36213;SDS011;37652;50.400;30.628;2022-11-20T04:18:25;40.23;;;27.87;;
36213;SDS011;37652;50.400;30.628;2022-11-20T04:20:26;31.20;;;23.92;;
36213;SDS011;37652;50.400;30.628;2022-11-20T04:22:26;35.40;;;25.95;;
36213;SDS011;37652;50.400;30.628;2022-11-20T04:24:27;33.50;;;25.85;;
36213;SDS011;37652;50.400;30.628;2022-11-20T04:26:28;32.80;;;25.05;;
36213;SDS011;37652;50.400;30.628;2022-11-20T04:28:30;33.23;;;25.17;;
36213;SDS011;37652;50.400;30.628;2022-11-20T04:30:30;32.88;;;24.70;;
36213;SDS011;37652;50.400;30.628;2022-11-20T04:32:31;24.38;;;16.40;;
36213;SDS011;37652;50.400;30.628;2022-11-20T04:34:32;25.73;;;20.20;;
36213;SDS011;37652;50.400;30.628;2022-11-20T04:36:33;31.40;;;22.30;;
36213;SDS011;37652;50.400;30.628;2022-11-20T04:38:34;31.25;;;21.65;;
36213;SDS011;37652;50.400;30.628;2022-11-20T04:40:34;31.70;;;23.85;;
36213;SDS011;37652;50.400;30.628;2022-11-20T04:42:35;31.90;;;23.65;;
36213;SDS011;37652;50.400;30.628;2022-11-20T04:44:39;28.27;;;21.50;;
36213;SDS011;37652;50.400;30.628;2022-11-20T04:46:40;30.55;;;22.73;;
36213;SDS011;37652;50.400;30.628;2022-11-20T04:48:42;31.27;;;22.60;;
36213;SDS011;37652;50.400;30.628;2022-11-20T04:50:42;21.67;;;17.33;;
36213;SDS011;37652;50.400;30.628;2022-11-20T04:52:43;31.08;;;23.42;;
36213;SDS011;37652;50.400;30.628;2022-11-20T04:54:44;30.30;;;22.25;;
36213;SDS011;37652;50.400;30.628;2022-11-20T04:56:44;28.98;;;21.67;;
36213;SDS011;37652;50.400;30.628;2022-11-20T04:58:47;27.17;;;20.47;;
36213;SDS011;37652;50.400;30.628;2022-11-20T05:00:47;30.30;;;22.23;;
36213;SDS011;37652;50.400;30.628;2022-11-20T05:02:51;32.57;;;24.67;;
36213;SDS011;37652;50.400;30.628;2022-11-20T05:04:52;33.10;;;22.08;;
36213;SDS011;37652;50.400;30.628;2022-11-20T05:06:52;30.90;;;21.02;;
36213;SDS011;37652;50.400;30.628;2022-11-20T05:08:53;30.75;;;23.33;;
36213;SDS011;37652;50.400;30.628;2022-11-20T05:10:54;39.17;;;28.45;;
36213;SDS011;37652;50.400;30.628;2022-11-20T05:12:59;35.13;;;25.00;;
36213;SDS011;37652;50.400;30.628;2022-11-20T05:14:59;38.53;;;29.40;;
36213;SDS011;37652;50.400;30.628;2022-11-20T05:17:00;42.15;;;28.52;;
36213;SDS011;37652;50.400;30.628;2022-11-20T05:19:01;32.95;;;24.13;;
36213;SDS011;37652;50.400;30.628;2022-11-20T05:21:02;43.88;;;30.02;;
36213;SDS011;37652;50.400;30.628;2022-11-20T05:25:04;46.57;;;33.93;;
36213;SDS011;37652;50.400;30.628;2022-11-20T05:27:05;51.47;;;33.72;;
36213;SDS011;37652;50.400;30.628;2022-11-20T05:29:06;48.03;;;33.72;;
36213;SDS011;37652;50.400;30.628;2022-11-20T05:31:07;43.88;;;30.92;;
36213;SDS011;37652;50.400;30.628;2022-11-20T05:33:10;38.17;;;26.83;;
36213;SDS011;37652;50.400;30.628;2022-11-20T05:35:11;38.42;;;26.35;;
36213;SDS011;37652;50.400;30.628;2022-11-20T05:37:11;48.35;;;34.90;;
36213;SDS011;37652;50.400;30.628;2022-11-20T05:39:12;51.88;;;36.42;;
36213;SDS011;37652;50.400;30.628;2022-11-20T05:41:14;36.13;;;25.52;;
36213;SDS011;37652;50.400;30.628;2022-11-20T05:43:16;47.80;;;34.37;;
36213;SDS011;37652;50.400;30.628;2022-11-20T05:45:16;41.88;;;31.30;;
36213;SDS011;37652;50.400;30.628;2022-11-20T05:47:17;32.72;;;24.38;;
36213;SDS011;37652;50.400;30.628;2022-11-20T05:49:18;33.25;;;24.65;;
36213;SDS011;37652;50.400;30.628;2022-11-20T05:51:19;32.65;;;24.40;;
36213;SDS011;37652;50.400;30.628;2022-11-20T05:53:19;30.45;;;22.48;;
36213;SDS011;37652;50.400;30.628;2022-11-20T05:55:20;33.00;;;20.95;;
36213;SDS011;37652;50.400;30.628;2022-11-20T05:57:21;34.58;;;23.92;;
36213;SDS011;37652;50.400;30.628;2022-11-20T05:59:22;32.67;;;23.20;;
36213;SDS011;37652;50.400;30.628;2022-11-20T06:01:23;33.47;;;22.92;;
36213;SDS011;37652;50.400;30.628;2022-11-20T06:03:25;30.10;;;22.47;;
36213;SDS011;37652;50.400;30.628;2022-11-20T06:05:25;28.67;;;20.90;;
36213;SDS011;37652;50.400;30.628;2022-11-20T06:07:26;33.00;;;22.67;;
36213;SDS011;37652;50.400;30.628;2022-11-20T06:09:27;29.30;;;21.52;;
36213;SDS011;37652;50.400;30.628;2022-11-20T06:11:28;30.17;;;21.77;;
36213;SDS011;37652;50.400;30.628;2022-11-20T06:13:28;29.42;;;20.17;;
36213;SDS011;37652;50.400;30.628;2022-11-20T06:15:29;29.88;;;21.08;;
36213;SDS011;37652;50.400;30.628;2022-11-20T06:17:29;30.38;;;21.15;;
36213;SDS011;37652;50.400;30.628;2022-11-20T06:19:30;27.75;;;21.35;;
36213;SDS011;37652;50.400;30.628;2022-11-20T06:21:31;20.90;;;16.65;;
36213;SDS011;37652;50.400;30.628;2022-11-20T06:23:32;24.30;;;16.38;;
36213;SDS011;37652;50.400;30.628;2022-11-20T06:25:36;25.73;;;19.08;;
36213;SDS011;37652;50.400;30.628;2022-11-20T06:27:38;30.35;;;20.50;;
36213;SDS011;37652;50.400;30.628;2022-11-20T06:29:39;27.17;;;19.10;;
36213;SDS011;37652;50.400;30.628;2022-11-20T06:31:39;28.08;;;18.17;;
36213;SDS011;37652;50.400;30.628;2022-11-20T06:33:42;25.27;;;17.67;;
36213;SDS011;37652;50.400;30.628;2022-11-20T06:35:43;22.52;;;15.85;;
36213;SDS011;37652;50.400;30.628;2022-11-20T06:37:44;25.70;;;17.67;;
36213;SDS011;37652;50.400;30.628;2022-11-20T06:39:44;21.75;;;16.65;;
36213;SDS011;37652;50.400;30.628;2022-11-20T06:41:45;23.15;;;15.20;;
36213;SDS011;37652;50.400;30.628;2022-11-20T06:43:46;26.58;;;20.63;;
36213;SDS011;37652;50.400;30.628;2022-11-20T06:45:53;30.48;;;23.85;;
36213;SDS011;37652;50.400;30.628;2022-11-20T06:47:58;30.77;;;24.50;;
36213;SDS011;37652;50.400;30.628;2022-11-20T06:49:58;35.85;;;29.58;;
36213;SDS011;37652;50.400;30.628;2022-11-20T06:51:59;33.20;;;28.13;;
36213;SDS011;37652;50.400;30.628;2022-11-20T06:54:00;30.35;;;26.67;;
36213;SDS011;37652;50.400;30.628;2022-11-20T06:56:01;29.15;;;23.45;;
36213;SDS011;37652;50.400;30.628;2022-11-20T06:58:02;30.38;;;23.17;;
36213;SDS011;37652;50.400;30.628;2022-11-20T07:00:03;27.42;;;20.08;;
36213;SDS011;37652;50.400;30.628;2022-11-20T07:02:04;18.95;;;16.77;;
36213;SDS011;37652;50.400;30.628;2022-11-20T07:04:05;21.25;;;16.95;;
36213;SDS011;37652;50.400;30.628;2022-11-20T07:06:06;26.58;;;18.33;;
36213;SDS011;37652;50.400;30.628;2022-11-20T07:08:07;24.98;;;19.17;;
36213;SDS011;37652;50.400;30.628;2022-11-20T07:10:08;23.17;;;18.55;;
36213;SDS011;37652;50.400;30.628;2022-11-20T07:12:09;23.52;;;18.75;;
36213;SDS011;37652;50.400;30.628;2022-11-20T07:14:10;23.48;;;15.65;;
36213;SDS011;37652;50.400;30.628;2022-11-20T07:16:11;22.60;;;14.93;;
36213;SDS011;37652;50.400;30.628;2022-11-20T07:18:11;19.13;;;16.55;;
36213;SDS011;37652;50.400;30.628;2022-11-20T07:20:12;22.42;;;16.95;;
36213;SDS011;37652;50.400;30.628;2022-11-20T07:22:13;23.10;;;17.70;;
36213;SDS011;37652;50.400;30.628;2022-11-20T07:24:14;18.08;;;13.75;;
36213;SDS011;37652;50.400;30.628;2022-11-20T07:26:15;22.45;;;17.70;;
36213;SDS011;37652;50.400;30.628;2022-11-20T07:30:17;21.97;;;16.90;;
36213;SDS011;37652;50.400;30.628;2022-11-20T07:32:18;20.60;;;17.15;;
36213;SDS011;37652;50.400;30.628;2022-11-20T07:34:18;21.35;;;17.20;;
36213;SDS011;37652;50.400;30.628;2022-11-20T07:36:19;23.88;;;17.60;;
36213;SDS011;37652;50.400;30.628;2022-11-20T07:38:20;20.00;;;16.15;;
36213;SDS011;37652;50.400;30.628;2022-11-20T07:40:21;22.05;;;17.63;;
36213;SDS011;37652;50.400;30.628;2022-11-20T07:42:22;16.13;;;12.40;;
36213;SDS011;37652;50.400;30.628;2022-11-20T07:44:22;21.23;;;18.08;;
36213;SDS011;37652;50.400;30.628;2022-11-20T07:46:23;25.63;;;18.33;;
36213;SDS011;37652;50.400;30.628;2022-11-20T07:48:24;23.42;;;18.63;;
36213;SDS011;37652;50.400;30.628;2022-11-20T07:52:26;23.57;;;17.03;;
36213;SDS011;37652;50.400;30.628;2022-11-20T07:54:26;24.50;;;19.13;;
36213;SDS011;37652;50.400;30.628;2022-11-20T07:56:27;25.17;;;19.05;;
36213;SDS011;37652;50.400;30.628;2022-11-20T07:58:31;21.85;;;17.98;;
36213;SDS011;37652;50.400;30.628;2022-11-20T08:00:35;21.50;;;16.73;;
36213;SDS011;37652;50.400;30.628;2022-11-20T08:02:41;27.98;;;18.85;;
36213;SDS011;37652;50.400;30.628;2022-11-20T08:04:42;22.85;;;17.42;;
36213;SDS011;37652;50.400;30.628;2022-11-20T08:06:43;23.92;;;17.35;;
36213;SDS011;37652;50.400;30.628;2022-11-20T08:08:43;17.65;;;13.20;;
36213;SDS011;37652;50.400;30.628;2022-11-20T08:10:44;20.98;;;15.98;;
36213;SDS011;37652;50.400;30.628;2022-11-20T08:12:46;21.60;;;17.23;;
36213;SDS011;37652;50.400;30.628;2022-11-20T08:15:07;23.30;;;17.42;;
36213;SDS011;37652;50.400;30.628;2022-11-20T08:17:08;21.17;;;16.33;;
36213;SDS011;37652;50.400;30.628;2022-11-20T08:19:10;24.63;;;17.60;;
36213;SDS011;37652;50.400;30.628;2022-11-20T08:21:11;20.30;;;16.15;;
36213;SDS011;37652;50.400;30.628;2022-11-20T08:23:12;19.35;;;14.85;;
36213;SDS011;37652;50.400;30.628;2022-11-20T08:25:12;22.50;;;17.83;;
36213;SDS011;37652;50.400;30.628;2022-11-20T08:27:13;24.05;;;19.83;;
36213;SDS011;37652;50.400;30.628;2022-11-20T08:29:14;26.63;;;19.25;;
36213;SDS011;37652;50.400;30.628;2022-11-20T08:31:14;24.27;;;18.52;;
36213;SDS011;37652;50.400;30.628;2022-11-20T08:33:15;24.30;;;18.27;;
36213;SDS011;37652;50.400;30.628;2022-11-20T08:35:17;26.17;;;19.35;;
36213;SDS011;37652;50.400;30.628;2022-11-20T08:37:17;28.98;;;19.38;;
36213;SDS011;37652;50.400;30.628;2022-11-20T08:39:18;24.38;;;18.33;;
36213;SDS011;37652;50.400;30.628;2022-11-20T08:41:19;23.70;;;17.48;;
36213;SDS011;37652;50.400;30.628;2022-11-20T08:43:26;21.45;;;16.40;;
36213;SDS011;37652;50.400;30.628;2022-11-20T08:45:27;21.45;;;16.95;;
36213;SDS011;37652;50.400;30.628;2022-11-20T08:47:28;24.67;;;19.10;;
36213;SDS011;37652;50.400;30.628;2022-11-20T08:49:29;26.23;;;20.05;;
36213;SDS011;37652;50.400;30.628;2022-11-20T08:51:30;15.25;;;12.02;;
36213;SDS011;37652;50.400;30.628;2022-11-20T08:53:30;22.05;;;17.67;;
36213;SDS011;37652;50.400;30.628;2022-11-20T08:55:32;23.05;;;17.63;;
36213;SDS011;37652;50.400;30.628;2022-11-20T08:57:35;25.88;;;19.33;;
36213;SDS011;37652;50.400;30.628;2022-11-20T09:01:37;20.17;;;13.27;;
36213;SDS011;37652;50.400;30.628;2022-11-20T09:03:39;25.33;;;18.42;;
36213;SDS011;37652;50.400;30.628;2022-11-20T09:05:39;22.77;;;18.75;;
36213;SDS011;37652;50.400;30.628;2022-11-20T09:07:40;25.77;;;18.58;;
36213;SDS011;37652;50.400;30.628;2022-11-20T09:09:42;24.15;;;18.48;;
36213;SDS011;37652;50.400;30.628;2022-11-20T09:11:42;23.20;;;17.98;;
36213;SDS011;37652;50.400;30.628;2022-11-20T09:13:43;19.35;;;15.15;;
36213;SDS011;37652;50.400;30.628;2022-11-20T09:15:44;18.05;;;14.85;;
36213;SDS011;37652;50.400;30.628;2022-11-20T09:17:54;21.33;;;17.13;;
36213;SDS011;37652;50.400;30.628;2022-11-20T09:19:58;21.83;;;16.88;;
36213;SDS011;37652;50.400;30.628;2022-11-20T09:21:59;21.67;;;18.13;;
36213;SDS011;37652;50.400;30.628;2022-11-20T09:24:00;20.42;;;18.23;;
36213;SDS011;37652;50.400;30.628;2022-11-20T09:26:01;22.40;;;19.50;;
36213;SDS011;37652;50.400;30.628;2022-11-20T09:28:12;22.50;;;18.20;;
36213;SDS011;37652;50.400;30.628;2022-11-20T09:30:16;23.27;;;18.33;;
36213;SDS011;37652;50.400;30.628;2022-11-20T09:32:17;20.85;;;17.10;;
36213;SDS011;37652;50.400;30.628;2022-11-20T09:34:17;22.00;;;19.10;;
36213;SDS011;37652;50.400;30.628;2022-11-20T09:36:18;25.05;;;19.70;;
36213;SDS011;37652;50.400;30.628;2022-11-20T09:38:19;31.00;;;23.55;;
36213;SDS011;37652;50.400;30.628;2022-11-20T09:40:21;30.10;;;24.00;;
36213;SDS011;37652;50.400;30.628;2022-11-20T09:44:45;26.33;;;19.83;;
36213;SDS011;37652;50.400;30.628;2022-11-20T09:47:24;22.35;;;17.25;;
36213;SDS011;37652;50.400;30.628;2022-11-20T09:54:22;22.00;;;18.05;;
36213;SDS011;37652;50.400;30.628;2022-11-20T09:56:29;19.67;;;16.00;;
36213;SDS011;37652;50.400;30.628;2022-11-20T09:58:35;19.17;;;16.83;;
36213;SDS011;37652;50.400;30.628;2022-11-20T10:00:45;21.10;;;17.05;;
36213;SDS011;37652;50.400;30.628;2022-11-20T10:07:28;21.15;;;17.15;;
36213;SDS011;37652;50.400;30.628;2022-11-20T10:09:35;24.15;;;18.77;;
36213;SDS011;37652;50.400;30.628;2022-11-20T10:11:44;20.73;;;17.33;;
36213;SDS011;37652;50.400;30.628;2022-11-20T10:26:03;24.67;;;18.25;;
36213;SDS011;37652;50.400;30.628;2022-11-20T10:28:17;21.25;;;18.17;;
36213;SDS011;37652;50.400;30.628;2022-11-20T10:30:29;20.13;;;16.23;;
36213;SDS011;37652;50.400;30.628;2022-11-20T10:32:38;23.73;;;17.83;;
36213;SDS011;37652;50.400;30.628;2022-11-20T10:34:57;20.65;;;17.00;;
36213;SDS011;37652;50.400;30.628;2022-11-20T10:37:09;22.95;;;18.20;;
36213;SDS011;37652;50.400;30.628;2022-11-20T10:39:28;23.30;;;18.88;;
36213;SDS011;37652;50.400;30.628;2022-11-20T10:41:37;25.38;;;19.67;;
36213;SDS011;37652;50.400;30.628;2022-11-20T10:43:41;22.63;;;17.38;;
36213;SDS011;37652;50.400;30.628;2022-11-20T10:48:10;22.92;;;17.25;;
36213;SDS011;37652;50.400;30.628;2022-11-20T10:50:16;25.23;;;19.75;;
36213;SDS011;37652;50.400;30.628;2022-11-20T10:54:32;24.35;;;18.75;;
36213;SDS011;37652;50.400;30.628;2022-11-20T10:56:48;24.38;;;18.48;;
36213;SDS011;37652;50.400;30.628;2022-11-20T11:01:16;28.98;;;20.17;;
36213;SDS011;37652;50.400;30.628;2022-11-20T11:03:26;26.17;;;19.35;;
36213;SDS011;37652;50.400;30.628;2022-11-20T11:05:33;26.00;;;18.75;;
36213;SDS011;37652;50.400;30.628;2022-11-20T11:07:40;25.30;;;20.77;;
36213;SDS011;37652;50.400;30.628;2022-11-20T11:09:43;22.23;;;18.80;;
36213;SDS011;37652;50.400;30.628;2022-11-20T11:11:47;30.88;;;23.48;;
36213;SDS011;37652;50.400;30.628;2022-11-20T11:13:48;26.80;;;20.65;;
36213;SDS011;37652;50.400;30.628;2022-11-20T11:15:49;26.45;;;21.23;;
36213;SDS011;37652;50.400;30.628;2022-11-20T11:19:58;29.00;;;21.50;;
36213;SDS011;37652;50.400;30.628;2022-11-20T11:22:00;26.92;;;21.85;;
36213;SDS011;37652;50.400;30.628;2022-11-20T11:24:19;28.10;;;22.27;;
36213;SDS011;37652;50.400;30.628;2022-11-20T11:26:28;31.05;;;23.98;;
36213;SDS011;37652;50.400;30.628;2022-11-20T11:28:29;26.23;;;20.77;;
36213;SDS011;37652;50.400;30.628;2022-11-20T11:30:40;25.27;;;19.88;;
36213;SDS011;37652;50.400;30.628;2022-11-20T11:32:43;25.85;;;20.75;;
36213;SDS011;37652;50.400;30.628;2022-11-20T11:34:45;26.63;;;21.27;;
36213;SDS011;37652;50.400;30.628;2022-11-20T11:36:58;28.52;;;22.30;;
36213;SDS011;37652;50.400;30.628;2022-11-20T11:39:02;27.48;;;20.50;;
36213;SDS011;37652;50.400;30.628;2022-11-20T11:41:06;32.88;;;24.58;;
36213;SDS011;37652;50.400;30.628;2022-11-20T11:43:25;23.90;;;19.98;;
36213;SDS011;37652;50.400;30.628;2022-11-20T11:45:54;26.65;;;20.48;;
36213;SDS011;37652;50.400;30.628;2022-11-20T11:48:00;32.50;;;23.48;;
36213;SDS011;37652;50.400;30.628;2022-11-20T11:52:12;26.77;;;21.90;;
36213;SDS011;37652;50.400;30.628;2022-11-20T11:54:17;30.13;;;23.58;;
36213;SDS011;37652;50.400;30.628;2022-11-20T11:56:23;28.60;;;22.23;;
36213;SDS011;37652;50.400;30.628;2022-11-20T12:00:53;26.08;;;19.60;;
36213;SDS011;37652;50.400;30.628;2022-11-20T12:03:04;22.90;;;18.48;;
36213;SDS011;37652;50.400;30.628;2022-11-20T12:09:55;24.17;;;18.73;;
36213;SDS011;37652;50.400;30.628;2022-11-20T12:11:59;23.60;;;19.33;;
36213;SDS011;37652;50.400;30.628;2022-11-20T12:16:36;26.42;;;20.40;;
36213;SDS011;37652;50.400;30.628;2022-11-20T12:18:38;25.75;;;21.05;;
36213;SDS011;37652;50.400;30.628;2022-11-20T12:20:41;25.52;;;20.27;;
36213;SDS011;37652;50.400;30.628;2022-11-20T12:23:02;28.25;;;22.02;;
36213;SDS011;37652;50.400;30.628;2022-11-20T12:27:49;25.15;;;19.40;;
36213;SDS011;37652;50.400;30.628;2022-11-20T12:30:15;25.45;;;19.35;;
36213;SDS011;37652;50.400;30.628;2022-11-20T12:36:58;23.38;;;18.40;;
36213;SDS011;37652;50.400;30.628;2022-11-20T12:44:39;25.70;;;19.27;;
36213;SDS011;37652;50.400;30.628;2022-11-20T12:49:37;27.48;;;20.33;;
36213;SDS011;37652;50.400;30.628;2022-11-20T13:03:42;27.48;;;22.50;;
36213;SDS011;37652;50.400;30.628;2022-11-20T13:05:51;26.42;;;21.17;;
36213;SDS011;37652;50.400;30.628;2022-11-20T16:38:25;28.83;;;20.92;;
36213;SDS011;37652;50.400;30.628;2022-11-20T16:40:25;29.10;;;21.75;;
36213;SDS011;37652;50.400;30.628;2022-11-20T16:42:26;27.83;;;21.00;;
36213;SDS011;37652;50.400;30.628;2022-11-20T16:44:27;29.95;;;21.02;;
36213;SDS011;37652;50.400;30.628;2022-11-20T16:46:28;31.35;;;22.10;;
36213;SDS011;37652;50.400;30.628;2022-11-20T16:48:31;34.83;;;24.20;;